Time,TemperatureF,DewpointF,PressureIn,WindDirection,WindDirectionDegrees,WindSpeedMPH,WindSpeedGustMPH,Humidity,HourlyPrecipIn,Conditions,Clouds,dailyrainin,SoftwareType,DateUTC
2013-01-27 00:27:00,44.2,38.7,29.71,SSE,157,0.0,-999.0,81,-99.99,,,0.00,Acu-Link.com,2013-01-27 07:27:00,
2013-01-27 00:42:00,43.9,37.5,29.72,ESE,112,2.2,-999.0,78,-99.99,,,0.00,Acu-Link.com,2013-01-27 07:42:00,
2013-01-27 00:57:00,43.7,36.0,29.71,ENE,67,0.0,-999.0,74,-99.99,,,0.00,Acu-Link.com,2013-01-27 07:57:00,
2013-01-27 01:12:00,43.7,33.1,29.70,ESE,112,0.0,-999.0,66,-99.99,,,0.00,Acu-Link.com,2013-01-27 08:12:00,
2013-01-27 01:28:00,43.7,31.9,29.72,SSE,157,2.2,-999.0,63,-99.99,,,0.00,Acu-Link.com,2013-01-27 08:28:00,
2013-01-27 01:43:00,44.1,31.5,29.71,ESE,112,2.2,-999.0,61,-99.99,,,0.00,Acu-Link.com,2013-01-27 08:43:00,
2013-01-27 01:58:00,44.2,32.0,29.71,SSE,157,3.7,-999.0,62,-99.99,,,0.00,Acu-Link.com,2013-01-27 08:58:00,
2013-01-27 02:16:00,44.2,32.8,29.70,East,90,0.0,-999.0,64,-99.99,,,0.00,Acu-Link.com,2013-01-27 09:16:00,
2013-01-27 02:31:00,44.2,35.4,29.72,ESE,112,0.0,-999.0,71,-99.99,,,0.00,Acu-Link.com,2013-01-27 09:31:00,
2013-01-27 02:47:00,44.2,36.1,29.72,ESE,112,0.0,-999.0,73,-99.99,,,0.00,Acu-Link.com,2013-01-27 09:47:00,
2013-01-27 03:02:00,43.9,35.1,29.71,SE,135,2.2,-999.0,71,-99.99,,,0.00,Acu-Link.com,2013-01-27 10:02:00,
2013-01-27 03:17:00,43.0,33.9,29.71,South,180,1.1,-999.0,70,-99.99,,,0.00,Acu-Link.com,2013-01-27 10:17:00,
2013-01-27 03:32:00,42.1,34.1,29.70,SSE,157,1.7,-999.0,73,-99.99,,,0.00,Acu-Link.com,2013-01-27 10:32:00,
2013-01-27 03:47:00,41.5,33.5,29.70,ESE,112,0.0,-999.0,73,-99.99,,,0.00,Acu-Link.com,2013-01-27 10:47:00,
2013-01-27 04:03:00,40.6,33.6,29.71,SSW,202,0.0,-999.0,76,-99.99,,,0.00,Acu-Link.com,2013-01-27 11:03:00,
2013-01-27 04:18:00,39.7,32.4,29.70,SE,135,0.0,-999.0,75,-99.99,,,0.00,Acu-Link.com,2013-01-27 11:18:00,
2013-01-27 04:33:00,39.6,31.3,29.71,SW,225,0.0,-999.0,72,-99.99,,,0.00,Acu-Link.com,2013-01-27 11:33:00,
2013-01-27 04:49:00,39.2,30.6,29.70,SSE,157,0.0,-999.0,71,-99.99,,,0.00,Acu-Link.com,2013-01-27 11:49:00,
2013-01-27 05:04:00,38.8,30.2,29.70,ESE,112,0.0,-999.0,71,-99.99,,,0.00,Acu-Link.com,2013-01-27 12:04:00,
2013-01-27 05:19:00,38.7,28.3,29.71,East,90,0.0,-999.0,66,-99.99,,,0.00,Acu-Link.com,2013-01-27 12:19:00,
2013-01-27 05:35:00,39.4,25.9,29.70,NE,45,0.0,-999.0,58,-99.99,,,0.00,Acu-Link.com,2013-01-27 12:35:00,
2013-01-27 05:50:00,40.1,27.7,29.70,East,90,1.1,-999.0,61,-99.99,,,0.00,Acu-Link.com,2013-01-27 12:50:00,
2013-01-27 06:05:00,40.1,28.1,29.71,ESE,112,0.0,-999.0,62,-99.99,,,0.00,Acu-Link.com,2013-01-27 13:05:00,
2013-01-27 06:21:00,39.7,28.2,29.72,ENE,67,0.0,-999.0,63,-99.99,,,0.00,Acu-Link.com,2013-01-27 13:21:00,
2013-01-27 06:36:00,39.7,26.2,29.73,South,180,0.0,-999.0,58,-99.99,,,0.00,Acu-Link.com,2013-01-27 13:36:00,
2013-01-27 06:51:00,39.9,26.3,29.74,ESE,112,0.0,-999.0,58,-99.99,,,0.00,Acu-Link.com,2013-01-27 13:51:00,
2013-01-27 07:07:00,40.1,26.5,29.73,SE,135,2.7,-999.0,58,-99.99,,,0.00,Acu-Link.com,2013-01-27 14:07:00,
2013-01-27 07:22:00,40.3,29.1,29.73,SE,135,2.2,-999.0,64,-99.99,,,0.00,Acu-Link.com,2013-01-27 14:22:00,
2013-01-27 07:37:00,40.3,31.3,29.72,SSE,157,3.2,-999.0,70,-99.99,,,0.00,Acu-Link.com,2013-01-27 14:37:00,
2013-01-27 07:52:00,40.5,32.9,29.73,SSE,157,4.2,-999.0,74,-99.99,,,0.00,Acu-Link.com,2013-01-27 14:52:00,
2013-01-27 08:08:00,40.8,33.8,29.73,SE,135,1.7,-999.0,76,-99.99,,,0.00,Acu-Link.com,2013-01-27 15:08:00,
2013-01-27 08:23:00,41.4,35.4,29.73,SSE,157,1.7,-999.0,79,-99.99,,,0.00,Acu-Link.com,2013-01-27 15:23:00,
2013-01-27 08:38:00,43.9,38.8,29.74,NE,45,1.1,-999.0,82,-99.99,,,0.00,Acu-Link.com,2013-01-27 15:38:00,
2013-01-27 08:54:00,47.7,41.8,29.75,SE,135,4.2,-999.0,80,-99.99,,,0.00,Acu-Link.com,2013-01-27 15:54:00,
2013-01-27 09:09:00,48.9,42.3,29.74,NNE,22,2.7,-999.0,78,-99.99,,,0.00,Acu-Link.com,2013-01-27 16:09:00,
2013-01-27 09:24:00,50.2,42.9,29.73,SSW,202,1.7,-999.0,76,-99.99,,,0.00,Acu-Link.com,2013-01-27 16:24:00,
2013-01-27 09:39:00,52.0,43.6,29.75,East,90,2.2,-999.0,73,-99.99,,,0.00,Acu-Link.com,2013-01-27 16:39:00,
2013-01-27 09:55:00,53.1,43.9,29.75,NW,315,0.0,-999.0,71,-99.99,,,0.00,Acu-Link.com,2013-01-27 16:55:00,
2013-01-27 10:10:00,54.7,45.1,29.72,ENE,67,2.2,-999.0,70,-99.99,,,0.00,Acu-Link.com,2013-01-27 17:10:00,
2013-01-27 10:25:00,55.0,44.6,29.72,WSW,247,0.0,-999.0,68,-99.99,,,0.00,Acu-Link.com,2013-01-27 17:25:00,
2013-01-27 10:41:00,56.8,45.6,29.72,SE,135,3.2,-999.0,66,-99.99,,,0.00,Acu-Link.com,2013-01-27 17:41:00,
2013-01-27 10:56:00,57.2,44.7,29.73,SSE,157,3.2,-999.0,63,-99.99,,,0.00,Acu-Link.com,2013-01-27 17:56:00,
2013-01-27 11:11:00,58.6,46.0,29.73,SW,225,1.7,-999.0,63,-99.99,,,0.00,Acu-Link.com,2013-01-27 18:11:00,
2013-01-27 11:27:00,59.5,46.5,29.71,ESE,112,2.7,-999.0,62,-99.99,,,0.00,Acu-Link.com,2013-01-27 18:27:00,
2013-01-27 11:42:00,61.5,45.7,29.70,West,270,3.2,-999.0,56,-99.99,,,0.00,Acu-Link.com,2013-01-27 18:42:00,
2013-01-27 11:57:00,59.4,44.6,29.70,South,180,7.8,-999.0,58,-99.99,,,0.00,Acu-Link.com,2013-01-27 18:57:00,
2013-01-27 12:12:00,56.8,43.5,29.69,West,270,4.2,-999.0,61,-99.99,,,0.00,Acu-Link.com,2013-01-27 19:12:00,
2013-01-27 12:28:00,56.5,43.2,29.69,West,270,4.2,-999.0,61,-99.99,,,0.00,Acu-Link.com,2013-01-27 19:28:00,
2013-01-27 12:43:00,56.1,42.0,29.68,SW,225,3.7,-999.0,59,-99.99,,,0.00,Acu-Link.com,2013-01-27 19:43:00,
2013-01-27 12:58:00,56.7,42.5,29.67,WNW,292,8.3,-999.0,59,-99.99,,,0.00,Acu-Link.com,2013-01-27 19:58:00,
2013-01-27 13:14:00,57.9,42.8,29.67,SW,225,6.3,-999.0,57,-99.99,,,0.00,Acu-Link.com,2013-01-27 20:14:00,
2013-01-27 13:29:00,57.6,42.5,29.66,WSW,247,4.7,-999.0,57,-99.99,,,0.00,Acu-Link.com,2013-01-27 20:29:00,
2013-01-27 13:44:00,59.9,43.2,29.66,West,270,5.3,-999.0,54,-99.99,,,0.00,Acu-Link.com,2013-01-27 20:44:00,
2013-01-27 14:00:00,60.6,43.9,29.66,SW,225,6.8,-999.0,54,-99.99,,,0.00,Acu-Link.com,2013-01-27 21:00:00,
2013-01-27 14:15:00,60.4,42.2,29.65,West,270,6.3,-999.0,51,-99.99,,,0.00,Acu-Link.com,2013-01-27 21:15:00,
2013-01-27 14:30:00,60.6,41.9,29.65,WSW,247,5.8,-999.0,50,-99.99,,,0.00,Acu-Link.com,2013-01-27 21:30:00,
2013-01-27 14:46:00,60.4,40.1,29.64,WSW,247,5.3,-999.0,47,-99.99,,,0.00,Acu-Link.com,2013-01-27 21:46:00,
2013-01-27 15:01:00,60.8,41.0,29.65,SW,225,2.2,-999.0,48,-99.99,,,0.00,Acu-Link.com,2013-01-27 22:01:00,
2013-01-27 15:16:00,61.0,40.1,29.65,SSW,202,5.3,-999.0,46,-99.99,,,0.00,Acu-Link.com,2013-01-27 22:16:00,
2013-01-27 15:32:00,60.4,40.6,29.65,West,270,4.2,-999.0,48,-99.99,,,0.00,Acu-Link.com,2013-01-27 22:32:00,
2013-01-27 15:47:00,60.6,40.3,29.63,NW,315,2.7,-999.0,47,-99.99,,,0.00,Acu-Link.com,2013-01-27 22:47:00,
2013-01-27 16:02:00,60.6,40.3,29.63,West,270,5.8,-999.0,47,-99.99,,,0.00,Acu-Link.com,2013-01-27 23:02:00,
2013-01-27 16:18:00,60.1,40.3,29.62,SSW,202,1.7,-999.0,48,-99.99,,,0.00,Acu-Link.com,2013-01-27 23:18:00,
2013-01-27 16:33:00,59.4,40.2,29.63,NW,315,2.7,-999.0,49,-99.99,,,0.00,Acu-Link.com,2013-01-27 23:33:00,
2013-01-27 16:48:00,60.3,40.0,29.63,West,270,4.2,-999.0,47,-99.99,,,0.00,Acu-Link.com,2013-01-27 23:48:00,
2013-01-27 17:03:00,58.6,39.5,29.64,SSW,202,1.1,-999.0,49,-99.99,,,0.00,Acu-Link.com,2013-01-28 00:03:00,
2013-01-27 17:19:00,57.4,39.4,29.63,West,270,2.7,-999.0,51,-99.99,,,0.00,Acu-Link.com,2013-01-28 00:19:00,
2013-01-27 17:34:00,56.3,39.4,29.63,West,270,2.2,-999.0,53,-99.99,,,0.00,Acu-Link.com,2013-01-28 00:34:00,
2013-01-27 17:49:00,55.9,39.5,29.65,South,180,0.0,-999.0,54,-99.99,,,0.00,Acu-Link.com,2013-01-28 00:49:00,
2013-01-27 18:05:00,55.6,40.6,29.66,SSE,157,0.0,-999.0,57,-99.99,,,0.00,Acu-Link.com,2013-01-28 01:05:00,
2013-01-27 18:20:00,55.0,40.9,29.66,South,180,0.0,-999.0,59,-99.99,,,0.00,Acu-Link.com,2013-01-28 01:20:00,
2013-01-27 18:35:00,54.3,43.6,29.66,WSW,247,0.0,-999.0,67,-99.99,,,0.00,Acu-Link.com,2013-01-28 01:35:00,
2013-01-27 18:51:00,53.1,43.9,29.65,ESE,112,0.0,-999.0,71,-99.99,,,0.00,Acu-Link.com,2013-01-28 01:51:00,
2013-01-27 19:06:00,51.8,43.8,29.66,SSW,202,0.0,-999.0,74,-99.99,,,0.00,Acu-Link.com,2013-01-28 02:06:00,
2013-01-27 19:21:00,51.1,43.1,29.66,East,90,0.0,-999.0,74,-99.99,,,0.00,Acu-Link.com,2013-01-28 02:21:00,
2013-01-27 19:37:00,51.1,43.5,29.66,SSW,202,0.0,-999.0,75,-99.99,,,0.00,Acu-Link.com,2013-01-28 02:37:00,
2013-01-27 19:52:00,50.4,43.5,29.68,East,90,0.0,-999.0,77,-99.99,,,0.00,Acu-Link.com,2013-01-28 02:52:00,
2013-01-27 20:07:00,49.6,42.7,29.68,SSW,202,0.0,-999.0,77,-99.99,,,0.00,Acu-Link.com,2013-01-28 03:07:00,
2013-01-27 20:23:00,49.3,42.7,29.68,SW,225,0.0,-999.0,78,-99.99,,,0.00,Acu-Link.com,2013-01-28 03:23:00,
2013-01-27 20:38:00,48.9,42.3,29.67,South,180,0.0,-999.0,78,-99.99,,,0.00,Acu-Link.com,2013-01-28 03:38:00,
2013-01-27 20:53:00,47.8,41.3,29.68,SSW,202,0.0,-999.0,78,-99.99,,,0.00,Acu-Link.com,2013-01-28 03:53:00,
2013-01-27 21:08:00,46.8,40.6,29.68,West,270,0.0,-999.0,79,-99.99,,,0.00,Acu-Link.com,2013-01-28 04:08:00,
2013-01-27 21:24:00,45.7,39.2,29.68,South,180,0.0,-999.0,78,-99.99,,,0.00,Acu-Link.com,2013-01-28 04:24:00,
2013-01-27 21:39:00,44.4,38.3,29.68,ESE,112,0.0,-999.0,79,-99.99,,,0.00,Acu-Link.com,2013-01-28 04:39:00,
2013-01-27 21:54:00,43.5,37.7,29.68,ESE,112,0.0,-999.0,80,-99.99,,,0.00,Acu-Link.com,2013-01-28 04:54:00,
2013-01-27 22:10:00,43.0,37.6,29.68,South,180,0.0,-999.0,81,-99.99,,,0.00,Acu-Link.com,2013-01-28 05:10:00,
2013-01-27 22:25:00,42.3,36.9,29.68,SSE,157,0.0,-999.0,81,-99.99,,,0.00,Acu-Link.com,2013-01-28 05:25:00,
2013-01-27 22:40:00,42.6,37.2,29.68,South,180,2.7,-999.0,81,-99.99,,,0.00,Acu-Link.com,2013-01-28 05:40:00,
2013-01-27 22:56:00,43.0,37.6,29.69,SSE,157,1.7,-999.0,81,-99.99,,,0.00,Acu-Link.com,2013-01-28 05:56:00,
2013-01-27 23:11:00,43.2,37.8,29.68,ESE,112,0.0,-999.0,81,-99.99,,,0.00,Acu-Link.com,2013-01-28 06:11:00,
2013-01-27 23:26:00,43.0,37.6,29.67,NNE,22,1.7,-999.0,81,-99.99,,,0.00,Acu-Link.com,2013-01-28 06:26:00,
2013-01-27 23:42:00,43.0,37.6,29.68,SE,135,0.0,-999.0,81,-99.99,,,0.00,Acu-Link.com,2013-01-28 06:42:00,
2013-01-27 23:57:00,42.3,36.9,29.69,East,90,0.0,-999.0,81,-99.99,,,0.00,Acu-Link.com,2013-01-28 06:57:00,